Time;durP1;ratioP1;P1;durP2;ratioP2;P2;SDS_P1;SDS_P2;PMS_P1;PMS_P2;Temp;Humidity;BMP_temperature;BMP_pressure;BME280_temperature;BME280_humidity;BME280_pressure;Samples;Min_cycle;Max_cycle;Signal;HPM_P1;HPM_P2
2021/06/28 00:00:30;;;;;;;15.10;11.88;;;;;;;;;;5112428;28;20031;-78
2021/06/28 00:02:56;;;;;;;16.95;12.32;;;;;;;;;;5111295;28;20060;-77
2021/06/28 00:05:22;;;;;;;14.48;11.55;;;;;;;;;;5113740;28;20031;-78
2021/06/28 00:07:48;;;;;;;19.05;11.55;;;;;;;;;;5127799;28;20027;-77
2021/06/28 00:10:19;;;;;;;15.02;11.45;;;;;;;;;;5122455;28;20038;-78
2021/06/28 00:12:46;;;;;;;17.10;11.43;;;;;;;;;;5129647;28;20035;-76
2021/06/28 00:15:20;;;;;;;16.95;11.73;;;;;;;;;;5128521;28;20031;-77
2021/06/28 00:17:46;;;;;;;18.73;11.60;;;;;;;;;;5117250;28;20020;-77
2021/06/28 00:20:13;;;;;;;17.40;10.90;;;;;;;;;;5109917;28;20035;-77
2021/06/28 00:22:39;;;;;;;17.10;11.13;;;;;;;;;;5109130;28;20050;-77
2021/06/28 00:25:09;;;;;;;15.90;12.43;;;;;;;;;;5116618;27;20127;-77
2021/06/28 00:27:35;;;;;;;12.73;11.43;;;;;;;;;;5116309;27;20099;-77
2021/06/28 00:30:01;;;;;;;12.48;11.18;;;;;;;;;;5134896;27;20121;-77
2021/06/28 00:32:27;;;;;;;20.88;11.93;;;;;;;;;;5131033;27;20098;-76
2021/06/28 00:34:53;;;;;;;15.48;11.95;;;;;;;;;;5114201;27;20027;-76
2021/06/28 00:37:19;;;;;;;16.25;11.45;;;;;;;;;;5114515;27;20038;-77
2021/06/28 00:39:45;;;;;;;14.30;10.77;;;;;;;;;;5119977;27;20029;-78
2021/06/28 00:42:11;;;;;;;16.25;11.57;;;;;;;;;;5125030;27;20248;-77
2021/06/28 00:44:37;;;;;;;13.52;11.55;;;;;;;;;;5112858;28;20504;-77
2021/06/28 00:47:03;;;;;;;18.50;11.88;;;;;;;;;;5127300;27;20027;-76
2021/06/28 00:49:29;;;;;;;16.17;11.32;;;;;;;;;;5126842;27;20027;-77
2021/06/28 00:51:57;;;;;;;18.42;11.25;;;;;;;;;;5131650;27;20377;-77
2021/06/28 00:54:24;;;;;;;14.43;11.30;;;;;;;;;;5133247;27;20385;-77
2021/06/28 00:56:50;;;;;;;16.17;11.00;;;;;;;;;;5129355;27;20478;-76
2021/06/28 00:59:17;;;;;;;16.60;11.52;;;;;;;;;;5126375;27;20091;-77
2021/06/28 01:01:43;;;;;;;14.38;11.07;;;;;;;;;;5112595;28;20122;-76
2021/06/28 01:04:09;;;;;;;14.40;11.57;;;;;;;;;;5118337;27;20041;-76
2021/06/28 01:06:35;;;;;;;12.95;11.23;;;;;;;;;;5121919;27;20084;-77
2021/06/28 01:09:01;;;;;;;17.35;12.02;;;;;;;;;;5112102;28;20037;-77
2021/06/28 01:11:27;;;;;;;13.30;11.45;;;;;;;;;;5131351;27;20027;-76
2021/06/28 01:13:53;;;;;;;16.95;11.20;;;;;;;;;;5133943;27;20037;-76
2021/06/28 01:16:20;;;;;;;15.75;11.68;;;;;;;;;;5120778;27;20042;-77
2021/06/28 01:18:46;;;;;;;14.47;10.80;;;;;;;;;;5117267;27;20038;-76
2021/06/28 01:21:12;;;;;;;14.57;10.88;;;;;;;;;;5128732;27;20027;-77
2021/06/28 01:23:39;;;;;;;14.07;11.35;;;;;;;;;;5131521;27;20031;-76
2021/06/28 01:26:07;;;;;;;15.05;11.38;;;;;;;;;;5112672;27;20044;-77
2021/06/28 01:28:33;;;;;;;14.57;10.50;;;;;;;;;;5112594;28;20038;-76
2021/06/28 01:30:59;;;;;;;12.70;11.15;;;;;;;;;;5122617;27;20023;-76
2021/06/28 01:33:26;;;;;;;15.38;10.57;;;;;;;;;;5132204;27;20164;-77
2021/06/28 01:35:52;;;;;;;12.50;10.82;;;;;;;;;;5128904;27;20031;-77
2021/06/28 01:38:18;;;;;;;18.38;11.98;;;;;;;;;;5100166;27;20020;-77
2021/06/28 01:40:45;;;;;;;12.48;10.80;;;;;;;;;;5120910;27;20047;-76
2021/06/28 01:43:11;;;;;;;14.15;11.80;;;;;;;;;;5112180;27;20031;-77
2021/06/28 01:45:37;;;;;;;20.23;11.80;;;;;;;;;;5130483;27;20517;-77
2021/06/28 01:48:03;;;;;;;17.10;10.85;;;;;;;;;;5130189;27;20390;-76
2021/06/28 01:50:30;;;;;;;15.10;11.02;;;;;;;;;;5131357;27;20027;-77
2021/06/28 01:52:57;;;;;;;16.67;10.88;;;;;;;;;;5110812;28;20011;-77
2021/06/28 01:55:23;;;;;;;16.57;11.80;;;;;;;;;;5112300;28;20043;-77
2021/06/28 01:57:54;;;;;;;15.38;10.57;;;;;;;;;;5129793;27;20115;-77
2021/06/28 02:00:29;;;;;;;14.35;11.32;;;;;;;;;;5125141;27;20549;-77
2021/06/28 02:03:08;;;;;;;19.65;10.73;;;;;;;;;;5096493;27;20035;-77
2021/06/28 02:05:39;;;;;;;17.48;10.57;;;;;;;;;;5115642;27;20435;-78
2021/06/28 02:08:06;;;;;;;15.27;11.07;;;;;;;;;;5100673;28;20126;-77
2021/06/28 02:10:32;;;;;;;13.35;10.55;;;;;;;;;;5092556;27;20656;-77
2021/06/28 02:12:58;;;;;;;20.75;10.55;;;;;;;;;;5129655;27;20054;-74
2021/06/28 02:15:25;;;;;;;13.63;10.65;;;;;;;;;;5131735;27;20023;-77
2021/06/28 02:17:51;;;;;;;;;;;;;;;;;;5132512;27;20219;-77
2021/06/28 02:20:18;;;;;;;13.17;10.43;;;;;;;;;;5131839;27;20375;-77
2021/06/28 02:22:45;;;;;;;14.10;11.00;;;;;;;;;;5093773;28;20118;-76
2021/06/28 02:25:11;;;;;;;14.30;10.57;;;;;;;;;;5110973;27;20020;-77
2021/06/28 02:27:41;;;;;;;13.13;10.43;;;;;;;;;;5093283;28;20023;-77
2021/06/28 02:30:09;;;;;;;12.63;10.30;;;;;;;;;;5112471;27;20035;-77
2021/06/28 02:32:36;;;;;;;17.17;11.02;;;;;;;;;;5127462;27;20059;-77
2021/06/28 02:35:03;;;;;;;18.83;11.02;;;;;;;;;;5127841;27;20080;-77
2021/06/28 02:37:29;;;;;;;16.17;10.57;;;;;;;;;;5109589;27;20518;-77
2021/06/28 02:39:55;;;;;;;17.98;11.45;;;;;;;;;;5104498;28;20050;-77
2021/06/28 02:42:21;;;;;;;12.32;10.18;;;;;;;;;;5098553;27;20031;-76
2021/06/28 02:44:47;;;;;;;15.93;10.85;;;;;;;;;;5104338;27;20031;-77
2021/06/28 02:47:13;;;;;;;14.43;11.13;;;;;;;;;;5110256;28;20027;-76
2021/06/28 02:49:39;;;;;;;12.90;11.10;;;;;;;;;;5110695;28;20115;-77
2021/06/28 02:52:05;;;;;;;12.93;10.93;;;;;;;;;;5110660;28;20019;-77
2021/06/28 02:54:31;;;;;;;14.27;10.98;;;;;;;;;;5103380;27;20079;-76
2021/06/28 02:56:57;;;;;;;15.38;11.30;;;;;;;;;;5110115;28;20050;-76
2021/06/28 02:59:23;;;;;;;14.25;11.02;;;;;;;;;;5113132;27;20027;-77
2021/06/28 03:01:49;;;;;;;12.23;10.18;;;;;;;;;;5123424;27;20043;-76
2021/06/28 03:04:15;;;;;;;11.93;10.43;;;;;;;;;;5117638;27;20359;-76
2021/06/28 03:06:41;;;;;;;19.77;11.25;;;;;;;;;;5089915;28;20080;-76
2021/06/28 03:09:07;;;;;;;13.93;10.20;;;;;;;;;;5104659;28;20538;-75
2021/06/28 03:11:33;;;;;;;16.77;10.48;;;;;;;;;;5110423;28;20031;-76
2021/06/28 03:13:59;;;;;;;11.68;10.30;;;;;;;;;;5119335;27;20030;-74
2021/06/28 03:16:25;;;;;;;13.00;10.90;;;;;;;;;;5111278;28;20073;-77
2021/06/28 03:18:51;;;;;;;15.30;10.90;;;;;;;;;;5111029;28;20034;-76
2021/06/28 03:21:18;;;;;;;17.13;11.13;;;;;;;;;;5110408;28;20555;-76
2021/06/28 03:23:44;;;;;;;14.90;10.52;;;;;;;;;;5092152;28;20027;-78
2021/06/28 03:26:11;;;;;;;12.07;10.73;;;;;;;;;;5107683;28;20034;-76
2021/06/28 03:28:37;;;;;;;13.30;10.60;;;;;;;;;;5094907;28;20465;-77
2021/06/28 03:31:04;;;;;;;13.33;10.33;;;;;;;;;;5099563;28;20723;-77
2021/06/28 03:33:31;;;;;;;15.00;11.38;;;;;;;;;;5121016;28;20051;-76
2021/06/28 03:35:57;;;;;;;11.47;10.27;;;;;;;;;;5131099;28;20050;-77
2021/06/28 03:38:23;;;;;;;16.05;11.13;;;;;;;;;;5121296;28;20396;-76
2021/06/28 03:40:49;;;;;;;15.60;10.95;;;;;;;;;;5110603;28;20028;-76
2021/06/28 03:43:15;;;;;;;12.63;11.32;;;;;;;;;;5103901;28;20359;-76
2021/06/28 03:45:42;;;;;;;15.07;11.80;;;;;;;;;;5130874;28;20152;-76
2021/06/28 03:48:09;;;;;;;18.08;11.90;;;;;;;;;;5117007;28;20031;-75
2021/06/28 03:50:36;;;;;;;15.38;11.50;;;;;;;;;;5107988;28;20035;-76
2021/06/28 03:53:02;;;;;;;13.85;12.10;;;;;;;;;;5120712;28;20108;-76
2021/06/28 03:55:28;;;;;;;14.38;12.57;;;;;;;;;;5130409;28;20056;-76
2021/06/28 03:57:54;;;;;;;16.70;12.15;;;;;;;;;;5111654;28;20024;-76
2021/06/28 04:00:21;;;;;;;14.60;12.82;;;;;;;;;;5130450;27;20032;-77
2021/06/28 04:02:47;;;;;;;17.00;12.30;;;;;;;;;;5113754;28;20028;-76
2021/06/28 04:05:16;;;;;;;21.52;13.07;;;;;;;;;;5128211;27;20154;-76
2021/06/28 04:07:43;;;;;;;15.25;12.73;;;;;;;;;;5125308;27;20039;-76
2021/06/28 04:10:09;;;;;;;17.05;13.43;;;;;;;;;;5113222;28;20213;-77
2021/06/28 04:12:35;;;;;;;27.13;20.03;;;;;;;;;;5113301;28;20098;-76
2021/06/28 04:15:01;;;;;;;18.95;14.85;;;;;;;;;;5128379;27;20513;-76
2021/06/28 04:17:27;;;;;;;20.33;14.90;;;;;;;;;;5109656;28;20027;-76
2021/06/28 04:19:53;;;;;;;17.33;15.05;;;;;;;;;;5113722;28;20359;-77
2021/06/28 04:22:19;;;;;;;19.33;15.63;;;;;;;;;;5112707;28;20035;-76
2021/06/28 04:24:45;;;;;;;23.50;16.33;;;;;;;;;;5113657;27;20177;-76
2021/06/28 04:27:11;;;;;;;19.50;16.55;;;;;;;;;;5117432;27;20064;-77
2021/06/28 04:29:37;;;;;;;20.73;17.00;;;;;;;;;;5123942;27;20047;-76
2021/06/28 04:32:04;;;;;;;22.38;14.98;;;;;;;;;;5112452;28;20436;-77
2021/06/28 04:34:30;;;;;;;18.38;14.50;;;;;;;;;;5113596;28;20031;-77
2021/06/28 04:36:57;;;;;;;22.98;15.38;;;;;;;;;;5114664;27;20055;-77
2021/06/28 04:39:22;;;;;;;20.52;14.27;;;;;;;;;;5117414;27;20042;-77
2021/06/28 04:41:48;;;;;;;15.98;14.38;;;;;;;;;;5112425;28;20047;-77
2021/06/28 04:44:14;;;;;;;16.02;12.55;;;;;;;;;;5114299;27;20066;-77
2021/06/28 04:46:41;;;;;;;21.17;12.18;;;;;;;;;;5126180;27;20523;-77
2021/06/28 04:49:07;;;;;;;16.00;12.30;;;;;;;;;;5131885;27;20038;-77
2021/06/28 04:51:33;;;;;;;18.20;12.50;;;;;;;;;;5133520;27;20127;-76
2021/06/28 04:53:59;;;;;;;24.00;11.80;;;;;;;;;;5132581;27;20080;-77
2021/06/28 04:56:25;;;;;;;18.50;12.53;;;;;;;;;;5133864;27;20043;-77
2021/06/28 04:58:51;;;;;;;14.25;11.73;;;;;;;;;;5116968;27;20076;-75
2021/06/28 05:01:17;;;;;;;32.08;19.90;;;;;;;;;;5113150;27;20036;-77
2021/06/28 05:03:43;;;;;;;18.55;13.63;;;;;;;;;;5114409;27;20099;-78
2021/06/28 05:06:09;;;;;;;20.02;13.88;;;;;;;;;;5133831;27;20058;-76
2021/06/28 05:08:35;;;;;;;19.98;13.95;;;;;;;;;;5115634;27;20064;-77
2021/06/28 05:11:02;;;;;;;19.25;15.32;;;;;;;;;;5112213;28;20435;-75
2021/06/28 05:13:28;;;;;;;14.80;13.07;;;;;;;;;;5105166;27;20076;-76
2021/06/28 05:15:54;;;;;;;20.90;13.15;;;;;;;;;;5132144;27;20368;-76
2021/06/28 05:18:20;;;;;;;15.57;11.50;;;;;;;;;;5131350;27;20095;-77
2021/06/28 05:20:46;;;;;;;15.68;11.88;;;;;;;;;;5133017;27;20027;-76
2021/06/28 05:23:12;;;;;;;17.08;11.25;;;;;;;;;;5132661;27;20023;-76
2021/06/28 05:25:38;;;;;;;23.63;12.20;;;;;;;;;;5132053;27;20027;-76
2021/06/28 05:28:04;;;;;;;12.90;11.48;;;;;;;;;;5117711;27;20039;-76
2021/06/28 05:30:30;;;;;;;16.60;12.13;;;;;;;;;;5094148;28;20442;-76
2021/06/28 05:32:56;;;;;;;13.67;10.77;;;;;;;;;;5113799;27;20098;-77
2021/06/28 05:35:22;;;;;;;17.92;10.25;;;;;;;;;;5119286;27;20128;-76
2021/06/28 05:37:48;;;;;;;13.23;10.55;;;;;;;;;;5114311;27;20041;-76
2021/06/28 05:40:14;;;;;;;12.88;9.68;;;;;;;;;;5125017;27;20473;-75
2021/06/28 05:42:40;;;;;;;13.35;10.48;;;;;;;;;;5129865;27;20107;-77
2021/06/28 05:45:07;;;;;;;18.27;12.60;;;;;;;;;;5092004;28;20028;-76
2021/06/28 05:47:34;;;;;;;18.25;10.32;;;;;;;;;;5107778;27;20268;-75
2021/06/28 05:50:00;;;;;;;23.23;9.93;;;;;;;;;;5091755;28;20475;-77
2021/06/28 05:52:26;;;;;;;12.43;9.52;;;;;;;;;;5099687;28;20326;-76
2021/06/28 05:54:52;;;;;;;49.45;33.15;;;;;;;;;;5118026;27;20390;-76
2021/06/28 05:57:19;;;;;;;15.32;10.38;;;;;;;;;;5109968;28;20024;-74
2021/06/28 05:59:45;;;;;;;;;;;;;;;;;;5111135;27;20106;-74
2021/06/28 06:02:11;;;;;;;11.80;9.27;;;;;;;;;;5108030;28;19915;-75
2021/06/28 06:04:37;;;;;;;12.03;9.27;;;;;;;;;;5098023;28;20026;-75
2021/06/28 06:07:03;;;;;;;12.63;9.55;;;;;;;;;;5105673;28;20019;-76
2021/06/28 06:09:29;;;;;;;13.60;9.05;;;;;;;;;;5109380;28;20073;-77
2021/06/28 06:11:55;;;;;;;12.57;9.20;;;;;;;;;;5109615;28;21493;-75
2021/06/28 06:14:21;;;;;;;11.02;8.68;;;;;;;;;;5110295;28;20104;-75
2021/06/28 06:16:48;;;;;;;14.10;8.88;;;;;;;;;;5110276;28;20121;-75
2021/06/28 06:19:14;;;;;;;14.38;9.07;;;;;;;;;;5110536;27;20055;-75
2021/06/28 06:21:40;;;;;;;12.77;9.00;;;;;;;;;;5101831;28;20453;-76
2021/06/28 06:24:07;;;;;;;13.70;8.57;;;;;;;;;;5111711;28;20137;-73
2021/06/28 06:26:33;;;;;;;14.88;8.93;;;;;;;;;;5110530;28;20034;-75
2021/06/28 06:28:59;;;;;;;12.45;8.80;;;;;;;;;;5109397;28;20027;-74
2021/06/28 06:31:25;;;;;;;13.65;8.63;;;;;;;;;;5110888;27;20088;-74
2021/06/28 06:33:51;;;;;;;12.50;9.30;;;;;;;;;;5115678;27;20038;-75
2021/06/28 06:36:17;;;;;;;14.25;9.35;;;;;;;;;;5095190;28;20020;-73
2021/06/28 06:38:43;;;;;;;12.25;9.10;;;;;;;;;;5114229;27;20095;-74
2021/06/28 06:41:09;;;;;;;17.60;8.77;;;;;;;;;;5107295;27;20118;-74
2021/06/28 06:43:35;;;;;;;12.27;8.47;;;;;;;;;;5121853;27;20024;-74
2021/06/28 06:46:01;;;;;;;12.18;8.55;;;;;;;;;;5105743;27;20024;-74
2021/06/28 06:48:27;;;;;;;10.70;8.60;;;;;;;;;;5112028;27;20076;-74
2021/06/28 06:50:53;;;;;;;13.35;8.40;;;;;;;;;;5126993;27;20196;-74
2021/06/28 06:53:19;;;;;;;10.95;8.60;;;;;;;;;;5116881;27;20055;-76
2021/06/28 06:55:45;;;;;;;9.63;8.48;;;;;;;;;;5113516;27;20039;-79
2021/06/28 06:58:12;;;;;;;12.32;8.55;;;;;;;;;;5125351;27;20027;-81
2021/06/28 07:00:39;;;;;;;12.27;9.03;;;;;;;;;;5123615;27;20481;-79
2021/06/28 07:03:06;;;;;;;15.90;8.38;;;;;;;;;;5088693;27;20313;-79
2021/06/28 07:05:32;;;;;;;9.50;8.15;;;;;;;;;;5111568;27;20102;-80
2021/06/28 07:07:58;;;;;;;12.50;8.38;;;;;;;;;;5123118;27;20153;-79
2021/06/28 07:10:24;;;;;;;15.27;8.65;;;;;;;;;;5110214;28;20103;-81
2021/06/28 07:12:50;;;;;;;12.40;8.45;;;;;;;;;;5096903;27;20486;-79
2021/06/28 07:15:17;;;;;;;11.57;8.70;;;;;;;;;;5114088;28;20059;-78
2021/06/28 07:17:43;;;;;;;9.93;8.02;;;;;;;;;;5101596;28;20028;-78
2021/06/28 07:20:11;;;;;;;14.32;8.98;;;;;;;;;;5103243;28;20031;-78
2021/06/28 07:22:37;;;;;;;11.45;8.88;;;;;;;;;;5090031;28;20422;-77
2021/06/28 07:25:03;;;;;;;12.07;8.65;;;;;;;;;;5110261;28;20031;-81
2021/06/28 07:27:29;;;;;;;14.80;8.43;;;;;;;;;;5111491;28;20115;-78
2021/06/28 07:29:55;;;;;;;13.35;8.50;;;;;;;;;;5111263;28;20016;-80
2021/06/28 07:32:21;;;;;;;12.05;8.20;;;;;;;;;;5109416;28;20088;-76
2021/06/28 07:34:47;;;;;;;14.30;8.57;;;;;;;;;;5096206;28;20440;-76
2021/06/28 07:37:13;;;;;;;10.00;8.25;;;;;;;;;;5115594;28;20139;-76
2021/06/28 07:39:39;;;;;;;14.43;9.00;;;;;;;;;;5112430;27;20094;-76
2021/06/28 07:42:05;;;;;;;11.88;8.73;;;;;;;;;;5132742;27;20043;-75
2021/06/28 07:44:31;;;;;;;10.83;8.83;;;;;;;;;;5134006;27;20054;-77
2021/06/28 07:46:57;;;;;;;10.90;8.05;;;;;;;;;;5098049;28;20020;-76
2021/06/28 07:49:23;;;;;;;13.32;8.45;;;;;;;;;;5120267;27;20076;-77
2021/06/28 07:51:50;;;;;;;13.32;8.38;;;;;;;;;;5097121;28;20542;-78
2021/06/28 07:54:17;;;;;;;15.35;8.57;;;;;;;;;;5092893;28;20474;-76
2021/06/28 07:56:43;;;;;;;17.33;8.70;;;;;;;;;;5113508;28;20431;-77
2021/06/28 07:59:10;;;;;;;11.90;8.17;;;;;;;;;;5112920;27;20027;-79
2021/06/28 08:01:36;;;;;;;14.88;7.95;;;;;;;;;;5117273;27;20031;-75
2021/06/28 08:04:02;;;;;;;12.93;7.87;;;;;;;;;;5118693;27;20042;-75
2021/06/28 08:06:28;;;;;;;11.45;8.20;;;;;;;;;;5115721;27;20058;-74
2021/06/28 08:08:54;;;;;;;13.47;8.17;;;;;;;;;;5114738;27;20026;-73
2021/06/28 08:11:21;;;;;;;13.27;8.10;;;;;;;;;;5095246;28;20028;-74
2021/06/28 08:13:49;;;;;;;13.77;8.15;;;;;;;;;;5121271;27;20363;-74
2021/06/28 08:16:16;;;;;;;10.48;8.32;;;;;;;;;;5112859;27;20078;-73
2021/06/28 08:18:47;;;;;;;;;;;;;;;;;;5115429;27;20066;-74
2021/06/28 08:21:13;;;;;;;11.35;7.80;;;;;;;;;;5114165;28;19920;-74
2021/06/28 08:23:39;;;;;;;10.35;8.18;;;;;;;;;;5113439;27;20465;-72
2021/06/28 08:29:09;;;;;;;13.85;7.38;;;;;;;;;;5114869;28;20314;-75
2021/06/28 08:31:37;;;;;;;14.43;7.70;;;;;;;;;;5116076;28;20152;-73
2021/06/28 08:34:03;;;;;;;12.35;7.43;;;;;;;;;;5111499;27;20042;-73
2021/06/28 08:36:29;;;;;;;10.50;7.37;;;;;;;;;;5115903;27;20054;-72
2021/06/28 08:38:57;;;;;;;9.82;6.65;;;;;;;;;;5114383;27;20304;-73
2021/06/28 08:41:23;;;;;;;11.95;6.90;;;;;;;;;;5113725;28;20101;-74
2021/06/28 08:43:49;;;;;;;15.05;7.95;;;;;;;;;;5114010;27;20095;-73
2021/06/28 08:46:16;;;;;;;10.98;7.03;;;;;;;;;;5112207;28;20035;-73
2021/06/28 08:48:43;;;;;;;16.20;7.70;;;;;;;;;;5112790;28;20024;-75
2021/06/28 08:51:09;;;;;;;13.57;7.30;;;;;;;;;;5106339;27;20114;-76
2021/06/28 08:53:36;;;;;;;12.23;7.53;;;;;;;;;;5133253;27;20440;-76
2021/06/28 08:56:07;;;;;;;13.30;7.10;;;;;;;;;;5134225;27;20023;-76
2021/06/28 08:58:33;;;;;;;10.55;7.22;;;;;;;;;;5120481;27;20075;-75
2021/06/28 09:00:59;;;;;;;10.43;6.75;;;;;;;;;;5113178;28;20023;-76
2021/06/28 09:03:25;;;;;;;9.43;6.00;;;;;;;;;;5094670;28;20492;-76
2021/06/28 09:05:53;;;;;;;9.45;5.35;;;;;;;;;;5117766;27;20031;-74
2021/06/28 09:08:20;;;;;;;6.05;4.88;;;;;;;;;;5093594;28;20039;-77
2021/06/28 09:10:45;;;;;;;;;;;;;;;;;;5095096;28;20043;-76
2021/06/28 09:13:12;;;;;;;11.45;5.10;;;;;;;;;;5120090;27;19946;-75
2021/06/28 09:15:39;;;;;;;10.00;5.50;;;;;;;;;;5094298;28;20039;-77
2021/06/28 09:18:19;;;;;;;10.25;5.50;;;;;;;;;;5117303;27;20049;-76
2021/06/28 09:20:45;;;;;;;10.63;4.88;;;;;;;;;;5117762;27;20077;-77
2021/06/28 09:23:17;;;;;;;11.07;4.63;;;;;;;;;;5112106;28;20034;-77
2021/06/28 09:25:42;;;;;;;7.28;4.97;;;;;;;;;;5112922;28;20055;-75
2021/06/28 09:28:08;;;;;;;11.70;4.60;;;;;;;;;;5112200;28;20067;-77
2021/06/28 09:30:50;;;;;;;7.13;4.53;;;;;;;;;;5112092;28;20020;-77
2021/06/28 09:33:19;;;;;;;8.13;4.38;;;;;;;;;;5112272;28;20478;-77
2021/06/28 09:35:45;;;;;;;6.72;4.22;;;;;;;;;;5115243;27;20016;-74
2021/06/28 09:38:29;;;;;;;8.33;4.07;;;;;;;;;;5122033;27;20134;-73
2021/06/28 09:40:55;;;;;;;9.50;3.85;;;;;;;;;;5112707;27;20085;-76
2021/06/28 09:43:22;;;;;;;8.30;4.35;;;;;;;;;;5128174;27;20049;-73
2021/06/28 09:45:51;;;;;;;14.90;4.75;;;;;;;;;;5114769;27;20117;-75
2021/06/28 09:48:24;;;;;;;18.77;8.73;;;;;;;;;;5130658;27;20031;-75
2021/06/28 09:50:50;;;;;;;9.18;4.50;;;;;;;;;;5124216;27;20042;-75
2021/06/28 09:53:25;;;;;;;6.93;4.73;;;;;;;;;;5122643;27;20031;-76
2021/06/28 09:55:51;;;;;;;7.32;4.78;;;;;;;;;;5132432;27;20272;-76
2021/06/28 09:58:36;;;;;;;13.73;5.07;;;;;;;;;;5112188;27;20414;-76
2021/06/28 10:01:03;;;;;;;14.57;4.60;;;;;;;;;;5132600;27;20083;-76
2021/06/28 10:03:42;;;;;;;11.07;5.03;;;;;;;;;;5109175;28;20114;-75
2021/06/28 10:08:46;;;;;;;10.60;5.20;;;;;;;;;;5113447;27;20611;-75
2021/06/28 10:11:12;;;;;;;13.20;5.80;;;;;;;;;;5124190;27;20046;-78
2021/06/28 10:13:38;;;;;;;11.77;5.40;;;;;;;;;;5110019;28;20106;-77
2021/06/28 10:16:04;;;;;;;12.05;4.95;;;;;;;;;;5111851;28;20335;-76
2021/06/28 10:18:31;;;;;;;13.18;5.25;;;;;;;;;;5112065;28;20032;-77
2021/06/28 10:20:57;;;;;;;15.00;4.80;;;;;;;;;;5110922;28;20071;-78
2021/06/28 10:23:23;;;;;;;12.85;5.57;;;;;;;;;;5110149;28;20039;-78
2021/06/28 10:25:49;;;;;;;8.50;4.80;;;;;;;;;;5111777;28;20379;-79
2021/06/28 10:28:15;;;;;;;9.70;5.10;;;;;;;;;;5110605;27;20027;-77
2021/06/28 10:30:41;;;;;;;7.15;5.00;;;;;;;;;;5110914;28;20401;-79
2021/06/28 10:33:09;;;;;;;13.25;5.35;;;;;;;;;;5110838;28;20102;-79
2021/06/28 10:35:37;;;;;;;14.88;5.55;;;;;;;;;;5106544;28;20038;-77
2021/06/28 10:38:04;;;;;;;10.90;6.88;;;;;;;;;;5111641;28;20051;-77
2021/06/28 10:40:44;;;;;;;13.25;9.00;;;;;;;;;;5111479;28;20485;-75
2021/06/28 10:43:29;;;;;;;13.63;5.38;;;;;;;;;;5120458;27;20043;-76
2021/06/28 10:45:56;;;;;;;10.30;5.20;;;;;;;;;;5110082;28;20073;-77
2021/06/28 10:48:28;;;;;;;8.98;4.97;;;;;;;;;;5093453;28;20118;-76
2021/06/28 10:51:05;;;;;;;10.95;5.45;;;;;;;;;;5112125;27;20023;-77
2021/06/28 10:53:34;;;;;;;8.82;5.85;;;;;;;;;;5113216;27;20039;-77
2021/06/28 10:56:46;;;;;;;12.98;5.45;;;;;;;;;;5097721;27;20035;-78
2021/06/28 10:58:57;;;;;;;12.27;5.30;;;;;;;;;;5108347;27;20020;-77
2021/06/28 11:01:36;;;;;;;11.20;5.80;;;;;;;;;;5116317;27;20520;-77
2021/06/28 11:04:06;;;;;;;10.13;5.55;;;;;;;;;;5111519;27;20321;-77
2021/06/28 11:06:32;;;;;;;12.13;5.50;;;;;;;;;;5109512;28;20020;-82
2021/06/28 11:09:06;;;;;;;9.63;5.25;;;;;;;;;;5110677;28;20043;-79
2021/06/28 11:11:44;;;;;;;12.15;4.85;;;;;;;;;;5107921;28;20427;-79
2021/06/28 11:14:11;;;;;;;10.32;5.55;;;;;;;;;;5112290;27;20038;-80
2021/06/28 11:16:37;;;;;;;14.02;4.95;;;;;;;;;;5112920;28;20428;-81
2021/06/28 11:19:22;;;;;;;19.20;5.85;;;;;;;;;;5126837;27;20016;-82
2021/06/28 11:21:48;;;;;;;11.15;4.43;;;;;;;;;;5119887;28;20208;-82
2021/06/28 11:24:29;;;;;;;14.68;5.10;;;;;;;;;;5074272;28;20233;-80
2021/06/28 11:27:15;;;;;;;8.02;4.63;;;;;;;;;;5103146;28;20386;-80
2021/06/28 11:29:48;;;;;;;8.05;4.95;;;;;;;;;;5111707;28;21989;-82
2021/06/28 11:32:23;;;;;;;10.07;4.80;;;;;;;;;;5125569;28;20060;-82
2021/06/28 11:34:50;;;;;;;10.70;5.00;;;;;;;;;;5118690;28;20059;-81
2021/06/28 11:37:16;;;;;;;;;;;;;;;;;;5114849;28;20031;-78
2021/06/28 11:39:58;;;;;;;12.50;5.07;;;;;;;;;;5109830;28;20257;-80
2021/06/28 11:42:44;;;;;;;10.95;4.25;;;;;;;;;;5108612;28;20036;-81
2021/06/28 11:45:11;;;;;;;11.90;5.03;;;;;;;;;;5111176;28;20367;-78
2021/06/28 11:47:50;;;;;;;6.80;4.60;;;;;;;;;;5111599;28;20446;-79
2021/06/28 11:50:25;;;;;;;13.35;4.68;;;;;;;;;;5110208;28;20419;-80
2021/06/28 11:52:52;;;;;;;7.32;4.60;;;;;;;;;;5109816;28;20149;-79
2021/06/28 11:55:18;;;;;;;14.55;4.90;;;;;;;;;;5109903;28;20367;-79
2021/06/28 11:57:53;;;;;;;12.48;4.75;;;;;;;;;;5112102;28;20032;-80
2021/06/28 12:00:20;;;;;;;11.60;4.60;;;;;;;;;;5089613;28;20031;-81
2021/06/28 12:03:15;;;;;;;10.35;4.88;;;;;;;;;;5108707;27;20065;-81
2021/06/28 12:05:42;;;;;;;9.43;5.13;;;;;;;;;;5110785;28;20040;-79
2021/06/28 12:08:09;;;;;;;10.43;4.97;;;;;;;;;;5122206;28;20419;-78
2021/06/28 12:10:35;;;;;;;7.95;5.07;;;;;;;;;;5129703;28;20111;-78
2021/06/28 12:13:01;;;;;;;11.43;5.10;;;;;;;;;;5126601;28;20107;-79
2021/06/28 12:15:30;;;;;;;8.68;5.18;;;;;;;;;;5107450;28;20570;-77
2021/06/28 12:17:57;;;;;;;12.23;5.20;;;;;;;;;;5109017;28;20030;-77
2021/06/28 12:20:23;;;;;;;10.90;5.30;;;;;;;;;;5117156;27;20125;-77
2021/06/28 12:22:50;;;;;;;;;;;;;;;;;;5115590;27;20114;-77
2021/06/28 12:25:18;;;;;;;12.60;5.22;;;;;;;;;;5132261;27;19909;-78
2021/06/28 12:27:45;;;;;;;11.70;6.00;;;;;;;;;;5132674;27;20114;-78
2021/06/28 12:30:11;;;;;;;9.70;5.07;;;;;;;;;;5134796;27;20035;-78
2021/06/28 12:32:45;;;;;;;12.18;5.20;;;;;;;;;;5132956;27;20023;-78
2021/06/28 12:35:13;;;;;;;11.63;5.55;;;;;;;;;;5133904;27;20027;-79
2021/06/28 12:37:40;;;;;;;13.07;4.90;;;;;;;;;;5134183;27;20062;-78
2021/06/28 12:40:12;;;;;;;11.52;4.78;;;;;;;;;;5134397;27;20023;-78
2021/06/28 12:42:39;;;;;;;9.18;5.35;;;;;;;;;;5133038;27;20053;-78
2021/06/28 12:45:05;;;;;;;8.68;4.85;;;;;;;;;;5134373;27;20030;-78
2021/06/28 12:47:31;;;;;;;;;;;;;;;;;;5134148;27;20043;-79
2021/06/28 12:49:58;;;;;;;10.73;4.63;;;;;;;;;;5115349;27;19903;-78
2021/06/28 12:52:35;;;;;;;9.65;4.60;;;;;;;;;;5132787;27;20031;-78
2021/06/28 12:55:07;;;;;;;12.60;4.45;;;;;;;;;;5133883;27;20058;-78
2021/06/28 12:57:34;;;;;;;8.15;4.65;;;;;;;;;;5131833;27;20072;-79
2021/06/28 13:00:02;;;;;;;9.75;4.85;;;;;;;;;;5115639;27;20024;-79
2021/06/28 13:02:35;;;;;;;12.55;4.30;;;;;;;;;;5132887;27;20127;-78
2021/06/28 13:05:08;;;;;;;9.52;4.47;;;;;;;;;;5133301;27;20023;-78
2021/06/28 13:07:34;;;;;;;8.88;4.38;;;;;;;;;;5133223;27;20054;-77
2021/06/28 13:10:01;;;;;;;9.35;4.60;;;;;;;;;;5133442;27;20410;-79
2021/06/28 13:12:28;;;;;;;19.25;4.50;;;;;;;;;;5133372;27;20028;-79
2021/06/28 13:15:15;;;;;;;8.80;4.35;;;;;;;;;;5133036;27;20135;-76
2021/06/28 13:17:41;;;;;;;12.18;4.90;;;;;;;;;;5115060;27;20098;-79
2021/06/28 13:20:17;;;;;;;12.02;4.78;;;;;;;;;;5126242;27;20016;-77
2021/06/28 13:22:43;;;;;;;;;;;;;;;;;;5112860;28;20039;-79
2021/06/28 13:25:15;;;;;;;8.38;4.13;;;;;;;;;;5112105;28;19907;-79
2021/06/28 13:27:41;;;;;;;13.32;4.43;;;;;;;;;;5113098;27;20019;-79
2021/06/28 13:30:18;;;;;;;8.00;4.22;;;;;;;;;;5114847;27;20080;-79
2021/06/28 13:32:44;;;;;;;8.90;4.22;;;;;;;;;;5130239;27;20076;-78
2021/06/28 13:35:10;;;;;;;7.97;3.70;;;;;;;;;;5132455;27;20557;-79
2021/06/28 13:37:38;;;;;;;6.68;4.35;;;;;;;;;;5133129;27;20023;-77
2021/06/28 13:40:05;;;;;;;9.15;4.15;;;;;;;;;;5132947;27;20039;-77
2021/06/28 13:42:50;;;;;;;9.88;4.05;;;;;;;;;;5132671;27;20442;-77
2021/06/28 13:45:18;;;;;;;9.23;3.97;;;;;;;;;;5132722;27;20028;-78
2021/06/28 13:48:01;;;;;;;5.47;3.63;;;;;;;;;;5132101;27;20031;-77
2021/06/28 13:50:28;;;;;;;7.63;3.75;;;;;;;;;;5132744;27;20483;-75
2021/06/28 13:52:55;;;;;;;7.10;4.05;;;;;;;;;;5132206;27;20058;-75
2021/06/28 13:55:22;;;;;;;7.07;3.72;;;;;;;;;;5129243;27;20043;-78
2021/06/28 13:57:52;;;;;;;9.30;3.92;;;;;;;;;;5111239;28;20035;-78
2021/06/28 14:00:21;;;;;;;8.35;4.13;;;;;;;;;;5111949;28;20035;-77
2021/06/28 14:02:47;;;;;;;8.57;4.05;;;;;;;;;;5111536;28;20031;-77
2021/06/28 14:05:13;;;;;;;7.03;4.22;;;;;;;;;;5112347;28;20024;-77
2021/06/28 14:07:40;;;;;;;6.93;4.05;;;;;;;;;;5110936;28;20049;-77
2021/06/28 14:10:06;;;;;;;6.93;3.97;;;;;;;;;;5111938;28;20043;-76
2021/06/28 14:12:32;;;;;;;11.80;4.10;;;;;;;;;;5111548;28;20055;-77
2021/06/28 14:14:58;;;;;;;7.78;4.13;;;;;;;;;;5111950;28;20055;-77
2021/06/28 14:17:24;;;;;;;8.88;3.80;;;;;;;;;;5111628;28;20043;-76
2021/06/28 14:19:50;;;;;;;10.32;4.25;;;;;;;;;;5111113;28;20078;-77
2021/06/28 14:22:16;;;;;;;7.80;3.80;;;;;;;;;;5110799;28;20055;-77
2021/06/28 14:24:42;;;;;;;8.65;3.97;;;;;;;;;;5112051;28;20023;-77
2021/06/28 14:27:08;;;;;;;6.45;4.35;;;;;;;;;;5111709;28;20480;-77
2021/06/28 14:29:34;;;;;;;11.55;4.30;;;;;;;;;;5110470;28;20020;-76
2021/06/28 14:32:01;;;;;;;6.40;4.00;;;;;;;;;;5093041;28;20377;-77
2021/06/28 14:34:27;;;;;;;13.10;4.00;;;;;;;;;;5111656;28;20016;-77
2021/06/28 14:36:53;;;;;;;7.68;3.63;;;;;;;;;;5092664;28;20031;-76
2021/06/28 14:39:19;;;;;;;8.23;3.97;;;;;;;;;;5110777;28;20020;-77